Time;durP1;ratioP1;P1;durP2;ratioP2;P2;SDS_P1;SDS_P2;PMS_P1;PMS_P2;Temp;Humidity;BMP_temperature;BMP_pressure;BME280_temperature;BME280_humidity;BME280_pressure;Samples;Min_cycle;Max_cycle;Signal;HPM_P1;HPM_P2
2021/03/30 00:00:05;;;;;;;38.13;28.73;;;17.40;44.00;;;;;;4996260;28;20115;-72
2021/03/30 00:02:31;;;;;;;38.80;28.73;;;17.40;43.90;;;;;;4995643;28;20062;-72
2021/03/30 00:04:56;;;;;;;39.95;29.00;;;17.40;43.80;;;;;;5000204;28;20050;-72
2021/03/30 00:07:22;;;;;;;36.78;28.73;;;17.40;43.70;;;;;;4995132;28;20050;-73
2021/03/30 00:09:47;;;;;;;40.30;29.88;;;17.40;43.90;;;;;;4997149;28;20045;-73
2021/03/30 00:12:13;;;;;;;42.75;29.13;;;17.30;44.00;;;;;;4999433;28;20049;-73
2021/03/30 00:14:38;;;;;;;37.65;28.70;;;17.30;44.00;;;;;;5014797;28;20057;-72
2021/03/30 00:17:04;;;;;;;40.03;28.85;;;17.30;44.10;;;;;;4994319;28;20552;-72
2021/03/30 00:19:30;;;;;;;41.10;30.10;;;17.30;44.20;;;;;;4997942;28;20459;-72
2021/03/30 00:21:55;;;;;;;39.97;29.92;;;17.30;44.40;;;;;;4996042;28;20061;-72
2021/03/30 00:24:21;;;;;;;38.97;28.38;;;17.30;44.30;;;;;;4995689;28;20046;-71
2021/03/30 00:26:46;;;;;;;39.95;30.05;;;17.20;44.20;;;;;;4994691;28;20034;-72
2021/03/30 00:29:12;;;;;;;46.50;31.52;;;17.30;44.20;;;;;;4994338;28;20046;-72
2021/03/30 00:31:37;;;;;;;42.13;31.38;;;17.30;44.50;;;;;;4999682;28;20045;-72
2021/03/30 00:34:03;;;;;;;47.60;30.30;;;17.20;44.60;;;;;;4999333;28;20034;-72
2021/03/30 00:36:29;;;;;;;45.67;30.30;;;17.20;44.60;;;;;;4994639;28;20038;-72
2021/03/30 00:38:54;;;;;;;45.97;31.65;;;17.20;44.70;;;;;;5004237;28;20052;-72
2021/03/30 00:41:20;;;;;;;42.97;31.25;;;17.10;44.80;;;;;;4999485;28;20391;-62
2021/03/30 00:43:45;;;;;;;45.65;31.15;;;17.20;44.70;;;;;;4995673;28;20364;-73
2021/03/30 00:46:19;;;;;;;41.08;30.77;;;17.10;44.40;;;;;;4997093;28;20656;-72
2021/03/30 00:48:47;;;;;;;42.17;31.73;;;17.20;44.80;;;;;;4999285;28;20606;-73
2021/03/30 00:51:13;;;;;;;46.88;30.27;;;17.10;44.80;;;;;;5011426;28;20046;-73
2021/03/30 00:53:39;;;;;;;44.45;32.22;;;17.10;44.90;;;;;;4997956;28;20551;-72
2021/03/30 00:56:05;;;;;;;49.08;33.30;;;17.00;45.00;;;;;;4999747;28;20030;-72
2021/03/30 00:58:31;;;;;;;43.72;32.33;;;16.90;45.30;;;;;;4994967;28;20108;-72
2021/03/30 01:00:57;;;;;;;49.45;33.80;;;17.00;45.20;;;;;;5003245;28;20042;-72
2021/03/30 01:03:23;;;;;;;45.15;31.83;;;17.00;45.00;;;;;;5000039;28;20542;-71
2021/03/30 01:05:48;;;;;;;53.05;33.03;;;17.00;44.90;;;;;;4999712;28;20053;-72
2021/03/30 01:08:35;;;;;;;44.22;31.20;;;17.00;44.90;;;;;;4994742;28;20088;-72
2021/03/30 01:11:52;;;;;;;50.78;32.47;;;17.10;45.10;;;;;;4976115;28;20064;-72
2021/03/30 01:14:40;;;;;;;37.85;31.10;;;17.00;45.70;;;;;;4933414;28;20058;-73
2021/03/30 01:17:37;;;;;;;40.67;31.60;;;16.90;45.40;;;;;;4976405;28;20054;-72
2021/03/30 01:20:17;;;;;;;48.10;32.00;;;17.00;45.60;;;;;;4976466;28;20034;-72
2021/03/30 01:22:57;;;;;;;46.15;31.38;;;17.00;45.20;;;;;;4996777;28;20030;-72
2021/03/30 01:25:26;;;;;;;49.75;32.65;;;17.00;45.50;;;;;;4994695;28;20068;-72
2021/03/30 01:28:22;;;;;;;44.28;33.20;;;16.90;45.50;;;;;;4997955;28;20062;-71
2021/03/30 01:30:48;;;;;;;43.83;32.72;;;16.90;45.70;;;;;;5004107;28;20120;-72
2021/03/30 01:33:19;;;;;;;47.47;33.60;;;16.80;45.80;;;;;;5001062;28;20053;-72
2021/03/30 01:35:45;;;;;;;49.20;32.97;;;16.90;46.10;;;;;;4999446;28;20057;-72
2021/03/30 01:38:13;;;;;;;45.97;32.08;;;16.90;45.50;;;;;;4999992;28;20537;-72
2021/03/30 01:40:40;;;;;;;44.08;33.03;;;16.90;45.50;;;;;;5002671;28;20050;-72
2021/03/30 01:43:08;;;;;;;46.83;33.55;;;16.90;45.80;;;;;;5004489;28;20037;-72
2021/03/30 01:45:35;;;;;;;47.20;33.90;;;16.90;45.80;;;;;;5004365;28;20519;-72
2021/03/30 01:48:02;;;;;;;47.30;34.88;;;16.80;46.00;;;;;;5000229;28;20031;-71
2021/03/30 01:50:29;;;;;;;41.28;32.53;;;16.80;46.00;;;;;;4999089;28;20061;-72
2021/03/30 01:52:57;;;;;;;46.95;33.92;;;16.70;46.10;;;;;;5000713;28;20044;-71
2021/03/30 01:55:24;;;;;;;46.08;34.88;;;16.80;46.10;;;;;;5000242;28;20077;-71
2021/03/30 01:57:54;;;;;;;45.15;33.53;;;16.70;46.30;;;;;;5005346;28;20113;-72
2021/03/30 02:00:22;;;;;;;51.40;34.90;;;16.80;46.40;;;;;;4995051;28;20057;-71
2021/03/30 02:02:49;;;;;;;50.25;35.42;;;16.70;46.70;;;;;;5002843;28;20097;-72
2021/03/30 02:05:16;;;;;;;44.45;34.85;;;16.80;46.40;;;;;;5012268;28;20415;-71
2021/03/30 02:07:44;;;;;;;44.65;34.83;;;16.70;46.50;;;;;;5000405;28;20042;-71
2021/03/30 02:10:17;;;;;;;46.40;36.22;;;16.80;46.60;;;;;;4997115;28;20408;-71
2021/03/30 02:12:44;;;;;;;45.17;36.53;;;16.70;46.80;;;;;;5001915;28;20120;-71
2021/03/30 02:15:12;;;;;;;47.50;36.00;;;16.70;46.90;;;;;;4997016;28;20037;-71
2021/03/30 02:17:59;;;;;;;46.75;35.70;;;16.70;47.10;;;;;;5003831;28;20038;-71
2021/03/30 02:20:29;;;;;;;49.33;36.05;;;16.60;47.80;;;;;;4998100;28;20050;-72
2021/03/30 02:23:06;;;;;;;49.15;36.58;;;16.70;47.20;;;;;;4998088;28;20052;-72
2021/03/30 02:25:33;;;;;;;49.00;37.45;;;16.60;47.90;;;;;;4995833;28;20046;-71
2021/03/30 02:28:04;;;;;;;47.55;36.70;;;16.60;47.60;;;;;;4997255;28;20049;-71
2021/03/30 02:30:33;;;;;;;48.63;37.05;;;16.60;47.80;;;;;;4996197;28;20038;-72
2021/03/30 02:33:00;;;;;;;45.47;35.42;;;16.50;48.20;;;;;;4997853;28;20066;-72
2021/03/30 02:35:26;;;;;;;48.28;36.17;;;16.50;48.10;;;;;;5000393;28;20472;-72
2021/03/30 02:37:52;;;;;;;48.72;37.13;;;16.50;48.00;;;;;;5001144;28;20440;-72
2021/03/30 02:40:21;;;;;;;45.55;35.83;;;16.50;48.20;;;;;;4997473;28;20030;-72
2021/03/30 02:42:49;;;;;;;50.28;35.78;;;16.50;48.60;;;;;;4995992;28;20030;-71
2021/03/30 02:45:21;;;;;;;49.40;35.95;;;16.50;48.40;;;;;;5005455;28;20042;-72
2021/03/30 02:47:48;;;;;;;48.10;36.15;;;16.40;48.50;;;;;;4996878;28;20112;-71
2021/03/30 02:50:14;;;;;;;43.47;35.67;;;16.40;48.70;;;;;;5004814;28;20034;-72
2021/03/30 02:52:41;;;;;;;53.95;37.67;;;16.40;48.70;;;;;;5000959;28;20045;-72
2021/03/30 02:55:07;;;;;;;46.60;36.30;;;16.30;48.70;;;;;;5003981;28;20077;-71
2021/03/30 02:57:33;;;;;;;45.78;35.22;;;16.40;48.70;;;;;;4999608;28;20052;-71
2021/03/30 02:59:59;;;;;;;50.15;35.58;;;16.40;48.70;;;;;;5003622;28;20031;-71
2021/03/30 03:02:26;;;;;;;44.28;34.20;;;16.40;48.80;;;;;;4997756;28;20076;-71
2021/03/30 03:04:52;;;;;;;47.60;36.75;;;16.40;49.10;;;;;;5004397;28;20041;-62
2021/03/30 03:07:18;;;;;;;48.45;36.25;;;16.30;49.00;;;;;;4997862;28;20049;-72
2021/03/30 03:09:46;;;;;;;51.83;37.33;;;16.30;49.00;;;;;;5005011;28;20042;-72
2021/03/30 03:12:12;;;;;;;50.75;37.67;;;16.30;49.00;;;;;;5001291;28;20054;-71
2021/03/30 03:14:42;;;;;;;46.83;35.60;;;16.30;49.30;;;;;;4997282;28;20049;-71
2021/03/30 03:17:09;;;;;;;47.08;34.28;;;16.20;49.30;;;;;;4997989;28;20040;-71
2021/03/30 03:19:36;;;;;;;44.60;35.30;;;16.20;49.30;;;;;;4999640;28;20046;-71
2021/03/30 03:22:05;;;;;;;44.20;36.47;;;16.20;49.30;;;;;;4998753;28;20045;-72
2021/03/30 03:24:31;;;;;;;45.05;36.13;;;16.30;49.50;;;;;;4998040;28;20050;-71
2021/03/30 03:26:57;;;;;;;45.00;34.25;;;16.20;49.50;;;;;;5002869;28;20501;-71
2021/03/30 03:29:23;;;;;;;47.75;36.53;;;16.10;49.70;;;;;;4999663;28;20073;-71
2021/03/30 03:31:49;;;;;;;44.10;35.05;;;16.10;49.70;;;;;;5007817;28;20045;-72
2021/03/30 03:34:16;;;;;;;43.72;35.60;;;16.10;49.60;;;;;;4997541;28;20352;-71
2021/03/30 03:36:45;;;;;;;48.55;36.40;;;16.10;49.40;;;;;;5000715;28;20050;-71
2021/03/30 03:39:14;;;;;;;44.20;35.13;;;16.20;49.50;;;;;;5001830;28;20041;-70
2021/03/30 03:41:40;;;;;;;49.20;35.63;;;16.20;49.70;;;;;;5006312;28;20042;-70
2021/03/30 03:44:07;;;;;;;43.97;33.25;;;16.10;49.80;;;;;;4997044;28;20041;-70
2021/03/30 03:46:33;;;;;;;46.75;34.10;;;16.20;49.80;;;;;;5003623;28;20049;-71
2021/03/30 03:48:59;;;;;;;45.33;33.20;;;16.10;50.00;;;;;;5000308;28;20052;-70
2021/03/30 03:51:28;;;;;;;41.83;33.33;;;16.10;49.80;;;;;;4992644;28;20042;-71
2021/03/30 03:53:56;;;;;;;43.72;33.67;;;16.00;49.90;;;;;;4996683;28;20122;-70
2021/03/30 03:56:29;;;;;;;44.35;35.00;;;16.10;50.10;;;;;;5004316;28;20045;-71
2021/03/30 03:59:00;;;;;;;42.80;32.58;;;16.10;50.20;;;;;;4992561;28;22431;-71
2021/03/30 04:01:44;;;;;;;43.70;33.17;;;16.00;50.00;;;;;;5004113;28;20046;-71
2021/03/30 04:04:38;;;;;;;46.40;32.88;;;16.00;50.30;;;;;;4996623;28;20052;-72
2021/03/30 04:07:05;;;;;;;44.13;33.42;;;15.90;50.30;;;;;;4977016;28;20403;-71
2021/03/30 04:09:33;;;;;;;43.22;33.25;;;15.90;50.20;;;;;;4991907;28;20088;-71
2021/03/30 04:11:59;;;;;;;40.03;31.92;;;16.00;50.40;;;;;;5005094;28;20431;-70
2021/03/30 04:14:25;;;;;;;45.90;32.75;;;15.90;50.30;;;;;;4997060;28;20534;-70
2021/03/30 04:16:51;;;;;;;40.70;32.30;;;15.90;50.50;;;;;;5003464;28;20496;-70
2021/03/30 04:19:17;;;;;;;43.92;34.25;;;15.90;50.70;;;;;;5000725;28;20121;-71
2021/03/30 04:21:43;;;;;;;45.67;32.72;;;15.90;50.60;;;;;;5000529;28;20449;-71
2021/03/30 04:24:09;;;;;;;45.78;32.58;;;15.90;50.90;;;;;;5001187;28;20072;-71
2021/03/30 04:26:39;;;;;;;43.92;31.70;;;15.90;50.90;;;;;;5000492;28;20041;-71
2021/03/30 04:29:06;;;;;;;42.88;31.50;;;15.90;51.10;;;;;;4996988;28;20034;-70
2021/03/30 04:31:40;;;;;;;37.90;29.88;;;15.80;50.80;;;;;;4997608;28;20105;-70
2021/03/30 04:34:06;;;;;;;43.17;30.50;;;15.80;51.20;;;;;;5002557;28;20052;-71
2021/03/30 04:36:32;;;;;;;47.80;31.13;;;15.80;51.10;;;;;;4997379;28;20033;-70
2021/03/30 04:38:57;;;;;;;43.10;30.00;;;15.80;51.10;;;;;;5007780;28;20042;-70
2021/03/30 04:41:23;;;;;;;37.03;28.55;;;15.80;51.20;;;;;;5004261;28;20088;-71
2021/03/30 04:43:49;;;;;;;41.20;29.95;;;15.70;51.20;;;;;;5004763;28;20403;-70
2021/03/30 04:46:14;;;;;;;37.83;29.38;;;15.70;50.90;;;;;;5003368;28;20042;-70
2021/03/30 04:48:40;;;;;;;42.72;29.30;;;15.70;51.30;;;;;;5006349;28;20030;-70
2021/03/30 04:51:06;;;;;;;38.50;27.95;;;15.60;51.10;;;;;;5000824;28;20559;-69
2021/03/30 04:53:33;;;;;;;39.42;28.42;;;15.70;51.40;;;;;;5005319;28;20034;-69
2021/03/30 04:56:02;;;;;;;35.08;27.77;;;15.60;51.70;;;;;;5003291;28;20038;-70
2021/03/30 04:58:28;;;;;;;39.63;29.77;;;15.60;51.50;;;;;;5006527;28;20061;-69
2021/03/30 05:00:54;;;;;;;39.17;28.90;;;15.60;51.90;;;;;;5006919;28;20070;-59
2021/03/30 05:03:19;;;;;;;38.17;28.13;;;15.60;51.50;;;;;;4993232;28;20042;-70
2021/03/30 05:05:45;;;;;;;33.67;28.27;;;15.60;51.60;;;;;;5006330;28;20372;-70
2021/03/30 05:08:10;;;;;;;39.50;29.15;;;15.60;51.50;;;;;;5008052;28;20034;-70
2021/03/30 05:10:36;;;;;;;40.25;27.98;;;15.50;51.70;;;;;;5009561;28;20488;-71
2021/03/30 05:13:02;;;;;;;38.75;27.73;;;15.50;51.40;;;;;;5012070;28;20038;-70
2021/03/30 05:15:27;;;;;;;37.97;28.45;;;15.60;51.50;;;;;;5005748;28;20044;-69
2021/03/30 05:17:53;;;;;;;37.65;28.45;;;15.50;51.40;;;;;;5007935;28;20045;-70
2021/03/30 05:20:19;;;;;;;42.33;29.60;;;15.50;51.20;;;;;;5011441;28;20650;-70
2021/03/30 05:22:44;;;;;;;38.70;27.77;;;15.50;51.10;;;;;;5004463;28;20519;-70
2021/03/30 05:25:11;;;;;;;37.40;27.98;;;15.50;51.10;;;;;;5000627;28;20046;-71
2021/03/30 05:27:36;;;;;;;39.53;29.08;;;15.50;51.10;;;;;;4997560;28;20042;-70
2021/03/30 05:30:04;;;;;;;38.03;28.65;;;15.50;51.00;;;;;;5007777;28;20034;-70
2021/03/30 05:32:30;;;;;;;43.70;29.13;;;15.50;50.90;;;;;;5003491;28;20041;-69
2021/03/30 05:34:55;;;;;;;35.20;26.80;;;15.50;51.20;;;;;;5003295;28;20089;-70
2021/03/30 05:37:21;;;;;;;41.60;29.20;;;15.50;51.00;;;;;;5008758;28;20036;-71
2021/03/30 05:39:47;;;;;;;38.05;28.95;;;15.50;50.90;;;;;;5002640;28;20045;-71
2021/03/30 05:42:17;;;;;;;41.97;27.75;;;15.50;51.00;;;;;;4997442;28;20034;-71
2021/03/30 05:44:44;;;;;;;37.95;28.42;;;15.50;51.10;;;;;;4997681;28;20103;-71
2021/03/30 05:47:16;;;;;;;38.25;27.98;;;15.50;51.30;;;;;;5001588;28;20046;-71
2021/03/30 05:49:43;;;;;;;35.13;27.98;;;15.50;51.00;;;;;;4999557;28;20038;-71
2021/03/30 05:52:30;;;;;;;40.20;28.17;;;15.50;50.90;;;;;;5004593;28;20042;-71
2021/03/30 05:54:57;;;;;;;42.88;28.00;;;15.60;51.80;;;;;;4992115;28;20041;-71
2021/03/30 05:57:28;;;;;;;35.28;27.05;;;15.50;50.90;;;;;;4998723;28;20063;-73
2021/03/30 05:59:57;;;;;;;38.35;28.88;;;15.50;50.90;;;;;;4997242;28;20492;-71
2021/03/30 06:02:51;;;;;;;40.10;29.17;;;15.50;50.80;;;;;;5001767;28;20050;-72
2021/03/30 06:05:17;;;;;;;36.13;28.63;;;15.70;50.60;;;;;;4974693;28;20038;-72
2021/03/30 06:07:43;;;;;;;34.67;28.52;;;15.60;50.70;;;;;;5005783;28;20188;-71
2021/03/30 06:10:19;;;;;;;36.08;28.63;;;15.60;50.50;;;;;;5002836;28;20064;-71
2021/03/30 06:16:36;;;;;;;38.83;28.38;;;15.70;50.40;;;;;;4938069;28;20053;-71
2021/03/30 06:19:16;;;;;;;35.08;27.52;;;15.70;50.60;;;;;;4985271;28;20045;-72
2021/03/30 06:21:44;;;;;;;44.03;30.02;;;15.70;50.50;;;;;;4995384;28;20042;-72
2021/03/30 06:24:22;;;;;;;42.92;29.85;;;15.70;50.40;;;;;;5001712;28;20077;-72
2021/03/30 06:27:04;;;;;;;49.95;32.03;;;15.80;50.80;;;;;;4993575;28;20050;-72
2021/03/30 06:29:38;;;;;;;38.65;29.40;;;15.80;50.40;;;;;;4989464;28;20049;-73
2021/03/30 06:32:09;;;;;;;39.55;28.77;;;15.80;50.20;;;;;;4993666;28;20084;-73
2021/03/30 06:34:37;;;;;;;47.58;33.63;;;15.90;50.90;;;;;;4994528;28;20041;-73
2021/03/30 06:37:28;;;;;;;47.95;34.40;;;15.90;50.60;;;;;;4999992;28;20033;-73
2021/03/30 06:40:00;;;;;;;53.03;36.90;;;15.90;51.20;;;;;;4988716;28;20050;-73
2021/03/30 06:42:31;;;;;;;50.88;36.40;;;15.90;51.20;;;;;;4997167;28;20550;-62
2021/03/30 06:44:56;;;;;;;52.30;36.63;;;16.00;51.00;;;;;;5009687;28;20109;-70
2021/03/30 06:47:23;;;;;;;50.53;37.38;;;16.00;51.20;;;;;;4992796;28;20436;-72
2021/03/30 06:49:58;;;;;;;58.88;37.55;;;16.00;50.90;;;;;;4995383;28;20546;-72
2021/03/30 06:52:34;;;;;;;51.85;37.30;;;16.00;51.10;;;;;;5000612;28;20408;-72
2021/03/30 06:58:22;;;;;;;51.83;38.08;;;16.10;51.00;;;;;;4978242;28;20105;-71
2021/03/30 07:00:48;;;;;;;54.58;39.80;;;16.10;51.20;;;;;;5000574;28;20449;-71
2021/03/30 07:03:18;;;;;;;52.30;38.38;;;16.00;50.90;;;;;;5007002;28;20030;-72
2021/03/30 07:05:46;;;;;;;58.90;39.88;;;16.20;50.80;;;;;;5005547;28;20594;-71
2021/03/30 07:08:20;;;;;;;56.13;39.50;;;16.20;50.80;;;;;;5004195;28;20049;-73
2021/03/30 07:10:50;;;;;;;56.97;39.20;;;16.20;50.60;;;;;;5010715;28;20271;-72
2021/03/30 07:13:20;;;;;;;57.75;39.38;;;16.10;50.50;;;;;;5003968;28;20065;-72
2021/03/30 07:15:46;;;;;;;53.08;40.28;;;16.30;50.60;;;;;;5003804;28;20069;-72
2021/03/30 07:18:30;;;;;;;55.65;41.38;;;16.20;50.70;;;;;;4992758;28;20080;-73
2021/03/30 07:21:04;;;;;;;54.08;40.42;;;16.30;51.70;;;;;;5011386;28;20495;-70
2021/03/30 07:23:34;;;;;;;56.10;41.25;;;16.20;51.10;;;;;;5001105;28;20061;-73
2021/03/30 07:26:15;;;;;;;56.50;39.60;;;16.20;50.50;;;;;;5005577;28;20054;-71
2021/03/30 07:28:48;;;;;;;52.13;40.13;;;16.20;50.70;;;;;;4994816;28;20077;-72
2021/03/30 07:31:31;;;;;;;53.00;41.60;;;16.20;50.80;;;;;;4999769;28;20399;-73
2021/03/30 07:34:08;;;;;;;54.55;41.85;;;16.20;50.10;;;;;;4992086;28;20601;-73
2021/03/30 07:36:43;;;;;;;52.05;40.05;;;16.30;50.00;;;;;;4995387;28;20514;-73
2021/03/30 07:39:09;;;;;;;50.90;38.42;;;16.40;50.00;;;;;;4990761;28;20034;-72
2021/03/30 07:41:38;;;;;;;60.03;40.78;;;16.40;49.80;;;;;;4994488;28;20104;-73
2021/03/30 07:44:05;;;;;;;53.88;40.70;;;16.50;49.60;;;;;;4993243;28;20156;-72
2021/03/30 07:46:32;;;;;;;56.78;41.13;;;16.40;49.50;;;;;;4993832;28;20080;-72
2021/03/30 07:48:59;;;;;;;52.25;41.60;;;16.50;49.50;;;;;;4991819;28;20042;-72
2021/03/30 07:51:34;;;;;;;53.97;42.05;;;16.50;49.40;;;;;;5004736;28;20092;-73
2021/03/30 07:54:23;;;;;;;70.20;41.10;;;16.60;49.50;;;;;;4986073;28;20088;-72
2021/03/30 07:56:51;;;;;;;62.92;41.83;;;16.60;49.20;;;;;;5009035;28;20096;-72
2021/03/30 07:59:45;;;;;;;58.65;41.85;;;16.60;49.00;;;;;;5004704;28;20049;-72
2021/03/30 08:02:15;;;;;;;54.72;42.05;;;16.60;48.90;;;;;;4986157;28;20038;-72
2021/03/30 08:05:03;;;;;;;51.28;40.45;;;16.60;48.90;;;;;;5004228;28;20037;-72
2021/03/30 08:07:51;;;;;;;53.78;41.08;;;16.70;49.20;;;;;;5006574;28;20038;-72
2021/03/30 08:10:29;;;;;;;56.90;42.90;;;16.70;48.80;;;;;;5004945;28;20049;-72
2021/03/30 08:13:32;;;;;;;58.67;45.35;;;16.80;48.60;;;;;;5006900;28;20041;-72
2021/03/30 08:16:06;;;;;;;52.10;41.80;;;16.90;49.20;;;;;;4955213;28;20038;-71
2021/03/30 08:18:37;;;;;;;53.03;41.50;;;16.90;48.80;;;;;;5023588;28;20365;-72
2021/03/30 08:21:08;;;;;;;49.95;39.75;;;16.90;48.10;;;;;;5003596;28;20092;-71
2021/03/30 08:23:52;;;;;;;54.05;39.75;;;17.00;48.10;;;;;;4999810;28;20101;-71
2021/03/30 08:26:22;;;;;;;56.08;41.53;;;17.00;47.80;;;;;;5002526;28;20046;-72
2021/03/30 08:28:47;;;;;;;58.65;40.50;;;17.10;47.70;;;;;;4999785;28;20046;-72
2021/03/30 08:31:21;;;;;;;56.05;39.33;;;17.10;48.00;;;;;;5002873;28;20096;-72
2021/03/30 08:33:49;;;;;;;58.35;41.38;;;17.10;47.20;;;;;;5007507;28;20053;-72
2021/03/30 08:36:30;;;;;;;55.47;40.25;;;17.20;47.30;;;;;;4998927;28;20126;-71
2021/03/30 08:39:10;;;;;;;56.45;42.25;;;17.20;47.20;;;;;;5008073;28;20068;-71
2021/03/30 08:41:41;;;;;;;55.42;41.38;;;17.30;47.20;;;;;;4962655;28;20034;-72
2021/03/30 08:44:36;;;;;;;56.10;42.60;;;17.30;46.50;;;;;;5006080;28;20041;-72
2021/03/30 08:47:01;;;;;;;54.53;42.28;;;17.40;46.20;;;;;;4997840;28;20407;-72
2021/03/30 08:49:41;;;;;;;58.30;43.10;;;17.40;46.70;;;;;;5007074;28;20113;-70
2021/03/30 08:52:14;;;;;;;58.83;42.45;;;17.50;46.40;;;;;;5002255;28;20052;-72
2021/03/30 08:54:53;;;;;;;55.73;41.40;;;17.50;46.70;;;;;;5001225;28;20041;-72
2021/03/30 08:57:27;;;;;;;54.72;43.38;;;17.60;46.50;;;;;;4999027;28;20046;-72
2021/03/30 08:59:53;;;;;;;60.97;44.13;;;17.60;46.20;;;;;;5005694;28;20050;-74
2021/03/30 09:02:26;;;;;;;62.78;44.22;;;17.60;46.30;;;;;;5001780;28;20047;-74
2021/03/30 09:04:52;;;;;;;59.05;45.10;;;17.70;46.30;;;;;;4995385;28;20041;-73
2021/03/30 09:07:18;;;;;;;56.95;42.72;;;17.80;46.30;;;;;;4999266;28;20034;-74
2021/03/30 09:09:44;;;;;;;58.65;43.95;;;17.90;46.00;;;;;;5007506;28;20045;-73
2021/03/30 09:12:20;;;;;;;58.53;43.53;;;17.90;45.80;;;;;;4998441;28;20514;-74
2021/03/30 09:14:48;;;;;;;54.25;41.78;;;18.00;45.90;;;;;;5002705;28;20034;-73
2021/03/30 09:17:18;;;;;;;58.38;44.25;;;18.00;45.80;;;;;;4999478;28;20120;-74
2021/03/30 09:19:47;;;;;;;62.00;45.15;;;18.10;45.50;;;;;;5001000;28;20403;-74
2021/03/30 09:22:20;;;;;;;59.88;45.10;;;18.10;45.50;;;;;;5005026;28;20037;-72
2021/03/30 09:27:42;;;;;;;63.58;45.15;;;18.30;45.30;;;;;;4998805;28;20073;-72
2021/03/30 09:30:12;;;;;;;58.03;44.40;;;18.40;44.80;;;;;;4979651;28;20034;-73
2021/03/30 09:32:40;;;;;;;57.03;44.72;;;18.60;44.60;;;;;;5000239;28;20547;-72
2021/03/30 09:35:07;;;;;;;59.60;45.33;;;18.60;44.40;;;;;;4998057;28;20037;-72
2021/03/30 09:37:45;;;;;;;65.07;44.65;;;18.60;44.30;;;;;;4996663;28;20043;-72
2021/03/30 09:40:17;;;;;;;61.25;42.67;;;18.70;44.20;;;;;;5004743;28;20045;-72
2021/03/30 09:42:45;;;;;;;53.75;41.78;;;18.80;44.30;;;;;;5002737;28;20048;-72
2021/03/30 09:45:13;;;;;;;57.67;42.45;;;18.80;44.00;;;;;;5008790;28;20068;-73
2021/03/30 09:47:39;;;;;;;54.50;43.25;;;18.90;44.00;;;;;;4993980;28;20044;-73
2021/03/30 09:50:07;;;;;;;54.78;41.97;;;19.00;43.50;;;;;;5006753;28;20141;-72
2021/03/30 09:52:34;;;;;;;60.88;41.33;;;19.00;43.10;;;;;;5003668;28;20418;-74
2021/03/30 09:54:59;;;;;;;54.30;41.50;;;19.00;43.00;;;;;;5016948;28;20120;-72
2021/03/30 09:57:28;;;;;;;50.92;39.45;;;19.00;43.10;;;;;;5011117;28;20029;-73
2021/03/30 09:59:55;;;;;;;50.05;39.95;;;19.10;42.70;;;;;;5006774;28;20042;-73
2021/03/30 10:02:30;;;;;;;50.80;39.08;;;19.00;43.10;;;;;;5008882;28;20041;-73
2021/03/30 10:04:58;;;;;;;49.45;38.97;;;19.10;42.80;;;;;;5008336;28;20513;-73
2021/03/30 10:07:32;;;;;;;47.47;39.22;;;19.30;42.90;;;;;;5006946;28;20538;-73
2021/03/30 10:10:05;;;;;;;52.10;39.13;;;19.30;42.30;;;;;;5004105;28;20045;-69
2021/03/30 10:12:36;;;;;;;52.88;39.30;;;19.40;41.90;;;;;;5008748;28;20273;-73
2021/03/30 10:15:03;;;;;;;51.05;40.45;;;19.50;41.80;;;;;;5005586;28;20142;-73
2021/03/30 10:17:31;;;;;;;48.58;38.42;;;19.50;41.00;;;;;;5010261;28;20049;-73
2021/03/30 10:19:57;;;;;;;49.22;36.70;;;19.60;41.20;;;;;;5003459;28;20046;-74
2021/03/30 10:22:33;;;;;;;44.08;35.70;;;19.60;40.50;;;;;;5008938;28;20038;-74
2021/03/30 10:25:27;;;;;;;45.35;35.08;;;19.70;40.90;;;;;;4996201;28;20049;-73
2021/03/30 10:27:59;;;;;;;47.70;33.88;;;19.60;39.60;;;;;;5006213;28;20398;-73
2021/03/30 10:30:46;;;;;;;48.05;38.53;;;19.80;40.40;;;;;;5003439;28;20144;-74
2021/03/30 10:33:16;;;;;;;46.35;33.97;;;20.00;40.20;;;;;;4983739;28;20050;-73
2021/03/30 10:35:42;;;;;;;44.15;36.50;;;19.90;40.30;;;;;;4999525;28;20044;-73
2021/03/30 10:38:09;;;;;;;43.10;35.97;;;19.90;40.20;;;;;;5009062;28;20466;-74
2021/03/30 10:40:39;;;;;;;53.40;38.75;;;20.10;39.90;;;;;;5006312;28;20042;-73
2021/03/30 10:43:24;;;;;;;47.55;36.90;;;20.30;39.80;;;;;;5007024;28;20038;-75
2021/03/30 10:45:52;;;;;;;49.10;38.30;;;20.20;39.00;;;;;;5009873;28;20520;-74
2021/03/30 10:48:18;;;;;;;44.95;37.75;;;20.30;39.60;;;;;;5006623;28;20249;-74
2021/03/30 10:50:44;;;;;;;48.17;38.92;;;20.30;39.60;;;;;;5000376;28;20042;-73
2021/03/30 10:53:10;;;;;;;44.03;37.22;;;20.30;39.60;;;;;;5005809;28;20141;-73
2021/03/30 10:55:37;;;;;;;44.88;35.42;;;20.40;39.60;;;;;;5006816;28;20117;-73
2021/03/30 10:58:06;;;;;;;45.33;35.63;;;20.50;39.20;;;;;;5006435;28;20042;-73
2021/03/30 11:00:32;;;;;;;46.13;35.53;;;20.60;38.90;;;;;;4998996;28;20172;-73
2021/03/30 11:02:58;;;;;;;44.05;31.42;;;20.90;38.50;;;;;;5007017;28;20432;-71
2021/03/30 11:05:25;;;;;;;43.72;34.25;;;20.60;38.70;;;;;;4996172;28;20045;-73
2021/03/30 11:07:50;;;;;;;44.05;34.97;;;20.80;38.10;;;;;;5006900;28;20490;-74
2021/03/30 11:10:17;;;;;;;45.70;37.17;;;20.90;38.10;;;;;;5006294;28;20030;-73
2021/03/30 11:12:42;;;;;;;43.67;35.65;;;21.10;37.00;;;;;;5002404;28;20041;-73
2021/03/30 11:15:09;;;;;;;43.20;34.15;;;21.10;37.30;;;;;;5005283;28;20041;-73
2021/03/30 11:17:35;;;;;;;43.28;33.80;;;21.30;36.90;;;;;;5002373;28;20046;-73
2021/03/30 11:20:01;;;;;;;45.95;35.10;;;21.40;36.40;;;;;;5017194;28;20400;-74
2021/03/30 11:22:26;;;;;;;41.78;33.63;;;21.50;36.00;;;;;;5002982;28;20066;-74
2021/03/30 11:24:57;;;;;;;40.03;34.03;;;21.50;36.60;;;;;;5006547;28;20503;-74
2021/03/30 11:27:23;;;;;;;42.70;36.05;;;21.70;36.50;;;;;;5002604;28;20046;-74
2021/03/30 11:30:05;;;;;;;44.60;35.65;;;21.70;35.20;;;;;;5002581;28;20088;-74
2021/03/30 11:32:34;;;;;;;42.20;33.70;;;21.60;35.90;;;;;;5002464;28;20030;-74
2021/03/30 11:35:08;;;;;;;42.85;33.28;;;21.60;35.90;;;;;;5004378;28;20042;-73
2021/03/30 11:40:14;;;;;;;42.22;32.33;;;22.20;35.30;;;;;;5010378;28;20132;-74
2021/03/30 11:42:40;;;;;;;46.45;33.92;;;22.20;35.50;;;;;;5001165;28;20129;-74
2021/03/30 11:45:15;;;;;;;44.47;32.92;;;22.00;35.10;;;;;;5000978;28;20041;-73
2021/03/30 11:47:40;;;;;;;40.88;30.67;;;22.30;34.50;;;;;;5005035;28;20161;-74
2021/03/30 11:50:07;;;;;;;40.17;32.60;;;22.50;34.70;;;;;;5007695;28;20085;-74
2021/03/30 11:52:34;;;;;;;37.22;30.70;;;22.50;33.50;;;;;;5000177;28;20052;-74
2021/03/30 11:55:00;;;;;;;42.72;32.03;;;22.50;33.70;;;;;;5006324;28;20041;-72
2021/03/30 11:57:26;;;;;;;44.28;32.28;;;22.60;33.20;;;;;;5006936;28;20041;-73
2021/03/30 11:59:52;;;;;;;40.50;31.98;;;22.80;32.60;;;;;;5005831;28;20110;-73
2021/03/30 12:02:17;;;;;;;41.50;30.40;;;23.10;32.00;;;;;;5008347;28;20057;-73
2021/03/30 12:04:43;;;;;;;42.90;33.30;;;22.80;32.20;;;;;;5005692;28;20057;-74
2021/03/30 12:07:09;;;;;;;37.67;31.08;;;23.20;31.80;;;;;;5005541;28;20034;-74
2021/03/30 12:09:34;;;;;;;42.63;33.22;;;23.90;31.00;;;;;;4980970;28;20041;-74
2021/03/30 12:12:00;;;;;;;42.88;32.15;;;25.30;29.40;;;;;;5007700;28;20088;-73
2021/03/30 12:14:25;;;;;;;39.83;32.92;;;29.60;26.20;;;;;;4996318;28;20041;-74
2021/03/30 12:16:51;;;;;;;43.03;31.13;;;29.40;23.80;;;;;;5002862;28;20050;-74
2021/03/30 12:19:18;;;;;;;39.97;33.10;;;34.10;19.70;;;;;;4999584;28;20034;-75
2021/03/30 12:21:45;;;;;;;37.50;31.20;;;34.80;20.30;;;;;;5003738;28;20049;-76
2021/03/30 12:24:11;;;;;;;38.28;32.05;;;36.00;19.40;;;;;;5000451;28;20046;-76
2021/03/30 12:26:37;;;;;;;41.28;32.08;;;37.30;18.40;;;;;;5007121;28;20112;-75
2021/03/30 12:29:03;;;;;;;40.30;33.83;;;38.00;17.40;;;;;;4991464;28;20105;-77
2021/03/30 12:31:30;;;;;;;39.97;34.58;;;38.30;17.50;;;;;;5002560;28;20042;-75
2021/03/30 12:33:56;;;;;;;36.03;31.50;;;38.20;16.40;;;;;;5001852;28;21901;-76
2021/03/30 12:36:22;;;;;;;35.42;31.00;;;37.90;16.20;;;;;;5006427;28;20116;-76
2021/03/30 12:38:48;;;;;;;37.72;33.67;;;38.40;16.50;;;;;;5003073;28;20472;-77
2021/03/30 12:41:13;;;;;;;38.47;32.90;;;35.00;17.00;;;;;;5003005;28;20049;-77
2021/03/30 12:43:39;;;;;;;39.80;31.90;;;36.90;17.80;;;;;;5006224;28;20530;-77
2021/03/30 12:46:04;;;;;;;37.97;31.00;;;37.40;16.50;;;;;;5001974;28;20495;-77
2021/03/30 12:48:30;;;;;;;36.83;31.45;;;38.90;16.70;;;;;;5001351;28;20038;-77
2021/03/30 12:50:56;;;;;;;40.00;33.95;;;38.70;15.50;;;;;;5001755;28;20089;-77
2021/03/30 12:53:22;;;;;;;35.08;31.33;;;39.40;15.40;;;;;;4998924;28;20026;-77